Time;durP1;ratioP1;P1;durP2;ratioP2;P2;SDS_P1;SDS_P2;PMS_P1;PMS_P2;Temp;Humidity;BMP_temperature;BMP_pressure;BME280_temperature;BME280_humidity;BME280_pressure;Samples;Min_cycle;Max_cycle;Signal;HPM_P1;HPM_P2
2023/09/07 00:00:49;;;;;;;7.13;4.38;;;17.20;95.90;;;;;;4946083;29;20032;-78
2023/09/07 00:03:15;;;;;;;8.32;4.45;;;17.20;96.50;;;;;;4936193;29;20056;-78
2023/09/07 00:05:41;;;;;;;7.90;4.03;;;17.20;96.70;;;;;;4927260;29;20040;-78
2023/09/07 00:08:07;;;;;;;6.70;4.07;;;17.20;96.10;;;;;;4927929;29;20035;-77
2023/09/07 00:10:36;;;;;;;7.95;4.53;;;17.10;96.70;;;;;;4926909;29;20028;-78
2023/09/07 00:13:05;;;;;;;6.75;4.30;;;17.10;96.50;;;;;;4926185;29;20364;-78
2023/09/07 00:15:36;;;;;;;6.85;4.65;;;17.00;96.50;;;;;;4925601;29;20036;-78
2023/09/07 00:18:02;;;;;;;6.60;4.75;;;17.10;96.90;;;;;;4926142;29;20028;-78
2023/09/07 00:20:28;;;;;;;5.85;4.20;;;17.00;97.20;;;;;;4926705;29;20302;-79
2023/09/07 00:22:54;;;;;;;8.32;5.00;;;17.00;97.40;;;;;;4925876;29;20039;-78
2023/09/07 00:25:20;;;;;;;6.68;4.88;;;16.90;97.40;;;;;;4927151;29;20191;-79
2023/09/07 00:27:46;;;;;;;8.43;4.57;;;16.90;97.70;;;;;;4926318;29;20267;-78
2023/09/07 00:30:12;;;;;;;6.90;4.50;;;16.80;97.40;;;;;;4926972;29;20036;-78
2023/09/07 06:10:01;;;;;;;8.85;6.18;;;15.80;99.90;;;;;;5480567;23;20122;-77
2023/09/07 06:12:27;;;;;;;9.88;5.85;;;15.90;99.90;;;;;;4949982;29;20040;-76
2023/09/07 06:14:53;;;;;;;10.75;6.25;;;16.00;99.90;;;;;;4945489;29;20039;-77
2023/09/07 06:17:19;;;;;;;10.40;6.30;;;16.10;99.90;;;;;;4938308;29;20050;-78
2023/09/07 06:19:48;;;;;;;9.50;6.25;;;16.10;99.90;;;;;;4929557;29;20249;-76
2023/09/07 06:22:33;;;;;;;10.30;6.80;;;16.20;99.90;;;;;;4943784;29;20060;-77
2023/09/07 06:25:31;;;;;;;14.55;7.60;;;16.30;99.90;;;;;;4927635;29;20032;-78
2023/09/07 06:27:59;;;;;;;15.35;7.10;;;16.30;99.90;;;;;;4955278;29;20070;-77
2023/09/07 06:30:26;;;;;;;14.05;6.95;;;16.40;99.90;;;;;;4938350;29;20111;-76
2023/09/07 06:32:56;;;;;;;11.35;6.60;;;16.40;99.90;;;;;;4929987;29;20086;-77
2023/09/07 06:35:26;;;;;;;12.38;7.00;;;16.60;99.90;;;;;;4945820;29;20019;-76
2023/09/07 06:37:53;;;;;;;16.70;7.45;;;16.70;99.90;;;;;;4944636;29;20024;-80
2023/09/07 06:40:28;;;;;;;14.02;6.57;;;16.80;99.90;;;;;;4946396;29;20051;-78
2023/09/07 06:42:56;;;;;;;12.50;6.32;;;16.90;99.90;;;;;;4930582;29;20031;-77
2023/09/07 06:45:27;;;;;;;15.38;7.47;;;17.00;99.90;;;;;;4949308;29;20055;-78
2023/09/07 06:48:05;;;;;;;15.45;7.15;;;17.10;99.90;;;;;;4957646;29;20095;-78
2023/09/07 06:50:34;;;;;;;16.25;6.63;;;17.30;99.90;;;;;;4953385;29;20197;-78
2023/09/07 06:53:13;;;;;;;14.88;7.07;;;17.40;99.90;;;;;;4957664;29;20167;-79
2023/09/07 06:55:39;;;;;;;11.85;6.90;;;17.50;99.90;;;;;;4958344;28;20035;-76
2023/09/07 06:58:08;;;;;;;14.90;7.18;;;17.50;99.90;;;;;;4957045;28;20058;-77
2023/09/07 07:00:34;;;;;;;13.07;7.38;;;17.70;99.90;;;;;;4948285;29;20190;-78
2023/09/07 07:03:16;;;;;;;11.93;6.55;;;17.80;99.90;;;;;;4946487;29;20030;-78
2023/09/07 07:05:42;;;;;;;16.45;7.47;;;17.90;99.90;;;;;;4930060;29;20035;-77
2023/09/07 07:08:09;;;;;;;12.45;6.63;;;17.90;99.90;;;;;;4929967;29;20039;-76
2023/09/07 07:10:46;;;;;;;11.18;6.68;;;18.00;99.90;;;;;;4912551;29;20060;-77
2023/09/07 07:13:15;;;;;;;13.52;6.30;;;18.20;99.90;;;;;;4925486;29;20055;-78
2023/09/07 07:16:00;;;;;;;11.82;6.20;;;18.30;99.90;;;;;;4926642;29;20048;-79
2023/09/07 07:18:39;;;;;;;9.65;6.18;;;18.40;99.90;;;;;;4934766;29;20356;-79
2023/09/07 07:21:05;;;;;;;9.98;5.90;;;18.40;99.90;;;;;;4937601;29;20036;-77
2023/09/07 07:23:38;;;;;;;16.38;6.32;;;18.60;99.90;;;;;;4926606;29;20031;-79
2023/09/07 07:26:13;;;;;;;9.50;5.70;;;18.70;99.90;;;;;;4926024;29;20198;-77
2023/09/07 07:28:39;;;;;;;9.15;5.32;;;18.80;99.90;;;;;;4911057;29;20039;-79
2023/09/07 07:31:11;;;;;;;10.20;6.55;;;18.90;99.90;;;;;;4925826;29;20081;-78
2023/09/07 07:33:55;;;;;;;11.32;5.75;;;19.00;99.40;;;;;;4925314;29;20080;-78
2023/09/07 07:36:24;;;;;;;9.35;5.43;;;19.00;99.20;;;;;;4925637;29;20080;-78
2023/09/07 07:38:56;;;;;;;11.02;5.88;;;19.10;98.80;;;;;;4926101;29;20039;-78
2023/09/07 07:41:21;;;;;;;8.23;5.45;;;19.20;98.90;;;;;;4926204;29;20099;-78
2023/09/07 07:43:48;;;;;;;9.57;5.50;;;19.40;98.50;;;;;;4910106;29;20040;-78
2023/09/07 07:46:15;;;;;;;9.20;5.35;;;19.50;98.20;;;;;;4942895;29;20225;-77
2023/09/07 07:48:42;;;;;;;10.27;5.30;;;19.50;97.80;;;;;;4941609;29;20236;-77
2023/09/07 07:51:08;;;;;;;8.77;4.80;;;19.60;97.60;;;;;;4941038;29;20111;-76
2023/09/07 07:53:38;;;;;;;7.10;5.05;;;19.70;97.40;;;;;;4926019;29;20138;-77
2023/09/07 07:56:10;;;;;;;7.72;4.70;;;19.80;96.90;;;;;;4924602;29;20052;-79
2023/09/07 07:58:58;;;;;;;11.15;4.95;;;19.90;96.70;;;;;;4926298;29;20036;-78
2023/09/07 08:01:26;;;;;;;11.55;5.50;;;20.10;96.60;;;;;;4925656;29;20321;-78
2023/09/07 08:03:57;;;;;;;8.35;5.35;;;20.20;96.10;;;;;;4914523;29;20228;-78
2023/09/07 08:06:30;;;;;;;10.02;5.68;;;20.30;96.00;;;;;;4925582;29;20063;-78
2023/09/07 08:08:56;;;;;;;11.75;5.40;;;20.40;95.80;;;;;;4926001;29;20076;-78
2023/09/07 08:11:22;;;;;;;8.80;5.30;;;20.50;95.50;;;;;;4922267;29;20037;-77
2023/09/07 08:13:49;;;;;;;9.98;5.55;;;20.60;95.50;;;;;;4893993;29;20036;-77
2023/09/07 08:16:17;;;;;;;9.32;5.90;;;20.80;95.10;;;;;;4925184;29;20301;-76
2023/09/07 08:18:46;;;;;;;11.18;5.60;;;20.80;95.10;;;;;;4935914;29;20047;-79
2023/09/07 08:21:32;;;;;;;10.05;5.68;;;20.90;94.60;;;;;;4940137;29;20202;-76
2023/09/07 08:23:57;;;;;;;7.43;4.78;;;21.00;94.70;;;;;;4925325;29;20039;-79
2023/09/07 08:26:23;;;;;;;11.77;5.72;;;21.00;94.20;;;;;;4925695;29;20035;-77
2023/09/07 08:28:49;;;;;;;9.43;5.32;;;21.10;94.20;;;;;;4926574;29;20039;-77
2023/09/07 08:31:20;;;;;;;10.48;5.43;;;21.20;93.80;;;;;;4924869;29;20026;-78
2023/09/07 08:33:46;;;;;;;8.07;4.68;;;21.20;93.80;;;;;;4926624;29;20083;-77
2023/09/07 08:36:16;;;;;;;9.13;5.05;;;21.30;93.30;;;;;;4924730;29;20395;-77
2023/09/07 08:38:41;;;;;;;7.80;5.32;;;21.40;93.00;;;;;;4926721;29;20116;-78
2023/09/07 08:41:08;;;;;;;9.80;5.20;;;21.40;92.80;;;;;;4909086;29;20032;-77
2023/09/07 08:43:45;;;;;;;7.88;4.80;;;21.60;92.70;;;;;;4926564;29;20103;-78
2023/09/07 08:46:23;;;;;;;8.52;5.10;;;21.60;92.40;;;;;;4925065;29;20024;-78
2023/09/07 08:49:04;;;;;;;8.85;4.90;;;21.70;92.40;;;;;;4925063;29;20041;-79
2023/09/07 08:51:34;;;;;;;12.27;4.88;;;21.90;92.20;;;;;;4926423;29;20040;-77
2023/09/07 08:54:00;;;;;;;10.57;5.20;;;22.00;92.20;;;;;;4924529;29;20032;-76
2023/09/07 08:56:26;;;;;;;8.55;5.25;;;22.10;92.00;;;;;;4925264;29;20107;-76
2023/09/07 08:58:58;;;;;;;10.90;4.97;;;22.10;91.90;;;;;;4925170;29;20047;-78
2023/09/07 09:01:24;;;;;;;9.02;5.30;;;22.20;91.80;;;;;;4925047;29;20282;-76
2023/09/07 09:03:51;;;;;;;7.93;5.28;;;22.30;91.50;;;;;;4924966;29;20059;-77
2023/09/07 09:06:18;;;;;;;8.32;4.82;;;22.30;91.30;;;;;;4925966;29;20099;-77
2023/09/07 09:08:53;;;;;;;11.47;5.47;;;22.30;91.50;;;;;;4925288;29;20064;-77
2023/09/07 09:11:25;;;;;;;10.30;5.07;;;22.40;91.20;;;;;;4925806;29;20044;-78
2023/09/07 09:13:52;;;;;;;9.20;5.20;;;22.40;91.60;;;;;;4925938;29;20067;-79
2023/09/07 09:16:18;;;;;;;11.38;5.30;;;22.50;91.20;;;;;;4925678;29;20024;-77
2023/09/07 09:18:52;;;;;;;15.45;5.20;;;22.70;91.10;;;;;;4935679;29;20221;-78
2023/09/07 09:21:24;;;;;;;7.53;4.75;;;22.80;91.20;;;;;;4935710;29;20221;-77
2023/09/07 09:23:52;;;;;;;13.05;5.18;;;22.80;90.60;;;;;;4924973;29;20136;-78
2023/09/07 09:26:19;;;;;;;13.60;4.40;;;23.00;90.60;;;;;;4924534;29;20032;-79
2023/09/07 09:28:45;;;;;;;7.32;4.88;;;23.00;90.40;;;;;;4924906;29;20087;-78
2023/09/07 09:31:14;;;;;;;12.98;5.20;;;23.20;90.00;;;;;;4927928;29;20238;-78
2023/09/07 09:33:47;;;;;;;11.18;4.80;;;23.20;90.10;;;;;;4928573;29;20038;-79
2023/09/07 09:36:14;;;;;;;9.80;4.93;;;23.30;90.20;;;;;;4928166;29;20039;-79
2023/09/07 09:38:40;;;;;;;6.22;4.65;;;23.40;90.10;;;;;;4928668;29;20038;-79
2023/09/07 09:41:07;;;;;;;8.13;4.97;;;23.50;89.50;;;;;;4928824;29;20032;-80
2023/09/07 09:43:33;;;;;;;6.63;4.57;;;23.70;89.60;;;;;;4928547;29;20035;-79
2023/09/07 09:46:15;;;;;;;7.85;4.25;;;23.70;89.20;;;;;;4921306;29;20033;-78
2023/09/07 09:48:42;;;;;;;10.30;4.90;;;23.80;88.90;;;;;;4910629;29;20040;-77
2023/09/07 09:51:08;;;;;;;7.57;5.13;;;23.90;88.50;;;;;;4910373;29;20318;-78
2023/09/07 09:53:49;;;;;;;8.65;4.63;;;23.80;87.80;;;;;;4925219;29;20087;-78
2023/09/07 09:56:15;;;;;;;10.48;5.18;;;23.90;88.40;;;;;;4909357;29;20093;-78
2023/09/07 09:59:07;;;;;;;8.98;4.97;;;24.00;87.70;;;;;;4925009;29;20029;-77
2023/09/07 10:01:47;;;;;;;6.65;4.15;;;24.10;88.20;;;;;;4900834;29;20096;-79
2023/09/07 10:04:22;;;;;;;10.20;4.60;;;24.20;88.20;;;;;;4924451;29;20151;-78
2023/09/07 10:07:05;;;;;;;8.15;4.72;;;24.30;88.00;;;;;;4910378;29;20028;-77
2023/09/07 10:09:38;;;;;;;11.90;5.05;;;24.50;87.00;;;;;;4907626;29;20425;-77
2023/09/07 10:12:12;;;;;;;8.77;5.07;;;24.50;87.10;;;;;;4933000;29;20110;-77
2023/09/07 10:14:51;;;;;;;7.78;5.00;;;24.50;86.60;;;;;;4934771;29;20036;-78
2023/09/07 10:17:23;;;;;;;8.65;4.65;;;24.60;86.40;;;;;;4893252;29;20055;-78
2023/09/07 10:19:51;;;;;;;8.30;4.97;;;24.60;86.30;;;;;;4909926;29;20251;-79
2023/09/07 10:22:23;;;;;;;6.70;4.82;;;24.60;86.50;;;;;;4925299;29;20051;-77
2023/09/07 10:25:15;;;;;;;9.73;5.20;;;24.70;85.80;;;;;;4928273;29;20135;-77
2023/09/07 10:27:43;;;;;;;9.63;4.78;;;24.80;86.10;;;;;;4929009;29;20059;-77
2023/09/07 10:30:22;;;;;;;7.30;5.40;;;24.80;85.10;;;;;;4928374;29;20083;-78
2023/09/07 10:32:57;;;;;;;9.20;4.63;;;24.90;85.50;;;;;;4927520;29;20080;-78
2023/09/07 10:35:43;;;;;;;10.05;4.80;;;25.00;85.00;;;;;;4910330;29;20040;-80
2023/09/07 10:38:35;;;;;;;6.68;4.45;;;25.10;85.20;;;;;;4928158;29;20027;-79
2023/09/07 10:41:04;;;;;;;7.07;4.35;;;25.30;85.10;;;;;;4928092;29;20047;-79
2023/09/07 10:43:50;;;;;;;5.88;4.53;;;25.50;85.10;;;;;;4928471;29;20095;-79
2023/09/07 10:46:20;;;;;;;8.30;4.95;;;25.70;84.50;;;;;;4928385;29;20411;-78
2023/09/07 10:48:48;;;;;;;5.63;4.32;;;25.60;83.90;;;;;;4928361;29;20333;-77
2023/09/07 10:51:14;;;;;;;6.43;4.30;;;25.70;83.10;;;;;;4927182;29;20103;-78
2023/09/07 10:53:42;;;;;;;4.80;4.10;;;25.80;84.00;;;;;;4927212;29;20270;-79
2023/09/07 10:56:14;;;;;;;7.20;4.18;;;26.00;83.10;;;;;;4922683;29;20047;-77
2023/09/07 10:59:01;;;;;;;5.78;4.35;;;26.30;82.80;;;;;;4928247;29;20047;-78
2023/09/07 11:01:31;;;;;;;6.95;4.13;;;26.30;82.10;;;;;;4928240;29;20036;-78
2023/09/07 11:04:00;;;;;;;7.10;4.63;;;26.50;81.40;;;;;;4928164;29;20040;-78
2023/09/07 11:07:10;;;;;;;6.00;3.90;;;26.90;80.80;;;;;;4927687;29;20374;-77
2023/09/07 11:09:51;;;;;;;5.85;4.18;;;27.40;79.50;;;;;;4924355;29;20085;-78
2023/09/07 11:12:21;;;;;;;5.80;3.92;;;28.00;78.20;;;;;;4927597;29;20437;-79
2023/09/07 11:14:56;;;;;;;7.80;3.78;;;28.30;76.50;;;;;;4928092;29;20036;-77
2023/09/07 11:17:49;;;;;;;6.15;3.67;;;28.80;75.70;;;;;;4927366;29;20059;-78
2023/09/07 11:20:44;;;;;;;5.78;4.28;;;29.70;73.60;;;;;;4907760;29;20052;-78
2023/09/07 11:23:12;;;;;;;4.40;3.25;;;30.90;71.20;;;;;;4923178;29;20222;-79
2023/09/07 11:25:39;;;;;;;4.07;3.35;;;31.60;69.70;;;;;;4908004;29;20057;-78
2023/09/07 11:28:22;;;;;;;;;;;;;;;;;;;;;
2023/09/07 11:31:27;;;;;;;6.18;3.22;;;32.90;66.10;;;;;;4908938;29;20323;-79
2023/09/07 11:33:57;;;;;;;4.35;3.08;;;33.80;64.40;;;;;;4851080;29;20050;-78
2023/09/07 11:36:24;;;;;;;5.90;2.97;;;34.40;62.90;;;;;;4895996;29;20052;-77
2023/09/07 11:39:31;;;;;;;4.47;2.67;;;35.20;61.60;;;;;;4905878;29;20039;-80
2023/09/07 11:42:03;;;;;;;4.88;3.10;;;36.00;60.70;;;;;;4908989;29;20040;-79
2023/09/07 11:44:29;;;;;;;4.10;2.88;;;36.60;59.30;;;;;;4909464;29;20310;-78
2023/09/07 11:47:20;;;;;;;3.67;2.80;;;36.60;59.00;;;;;;4920865;29;20023;-78
2023/09/07 11:49:46;;;;;;;5.25;3.00;;;36.90;58.30;;;;;;4896566;29;20044;-78
2023/09/07 11:52:12;;;;;;;4.95;2.72;;;37.20;57.60;;;;;;4919377;29;20049;-77
2023/09/07 11:55:10;;;;;;;4.25;2.42;;;37.70;56.80;;;;;;4914012;29;20088;-80
2023/09/07 11:57:37;;;;;;;3.10;2.40;;;38.00;56.20;;;;;;4907802;29;20056;-78
2023/09/07 12:00:06;;;;;;;3.80;2.45;;;38.50;55.50;;;;;;4908094;29;20024;-80
2023/09/07 12:02:41;;;;;;;2.90;2.10;;;38.70;54.90;;;;;;4922392;29;20064;-79
2023/09/07 12:05:14;;;;;;;2.97;2.33;;;39.10;54.50;;;;;;4908231;29;20051;-78
2023/09/07 12:07:58;;;;;;;4.60;2.45;;;39.20;53.50;;;;;;4907685;29;20025;-78
2023/09/07 12:10:24;;;;;;;4.60;2.67;;;39.00;53.80;;;;;;4907716;29;20060;-79
2023/09/07 12:12:49;;;;;;;4.97;2.53;;;39.00;53.60;;;;;;4908198;29;20076;-78
2023/09/07 12:15:15;;;;;;;3.25;2.20;;;39.10;53.50;;;;;;4921366;29;20348;-78
2023/09/07 12:17:55;;;;;;;5.05;2.15;;;39.50;53.30;;;;;;4912314;29;20036;-79
2023/09/07 12:20:39;;;;;;;3.13;2.30;;;39.70;53.10;;;;;;4942032;29;20043;-79
2023/09/07 12:23:07;;;;;;;4.53;2.38;;;39.70;52.30;;;;;;4925163;29;20028;-79
2023/09/07 12:25:41;;;;;;;4.53;2.17;;;40.40;51.40;;;;;;4910100;29;20103;-78
2023/09/07 12:28:06;;;;;;;3.83;2.33;;;40.90;50.90;;;;;;4925210;29;20058;-78
2023/09/07 12:30:32;;;;;;;3.15;2.22;;;41.00;50.30;;;;;;4926623;29;20317;-77
2023/09/07 12:32:58;;;;;;;2.97;2.15;;;40.50;50.50;;;;;;4926553;29;20043;-78
2023/09/07 12:35:23;;;;;;;5.25;2.20;;;40.50;49.80;;;;;;4926583;29;20060;-78
2023/09/07 12:37:49;;;;;;;4.55;2.17;;;40.90;50.10;;;;;;4926786;29;20095;-78
2023/09/07 12:40:15;;;;;;;4.53;2.88;;;40.90;50.10;;;;;;4909598;29;20035;-78
2023/09/07 12:42:45;;;;;;;4.18;2.40;;;41.00;49.80;;;;;;4926210;29;20091;-78
2023/09/07 12:45:14;;;;;;;5.10;2.47;;;41.00;49.80;;;;;;4926088;29;20040;-78
2023/09/07 12:47:39;;;;;;;5.43;2.28;;;40.70;50.00;;;;;;4926591;29;20066;-76
2023/09/07 12:50:06;;;;;;;4.10;2.33;;;41.10;49.40;;;;;;4925755;29;20354;-77
2023/09/07 12:52:34;;;;;;;3.60;2.33;;;42.10;48.30;;;;;;4932816;29;20044;-77
2023/09/07 12:55:00;;;;;;;3.38;2.20;;;42.40;48.70;;;;;;4930088;29;20027;-77
2023/09/07 12:57:25;;;;;;;5.28;2.30;;;42.70;48.10;;;;;;4944012;29;20093;-79
2023/09/07 12:59:51;;;;;;;2.92;2.10;;;42.30;48.20;;;;;;4937265;29;20243;-77
2023/09/07 13:02:17;;;;;;;3.67;1.80;;;42.60;47.90;;;;;;4926016;29;20300;-77
2023/09/07 13:04:42;;;;;;;3.03;2.00;;;43.10;47.20;;;;;;4928240;29;20024;-77
2023/09/07 13:07:08;;;;;;;3.15;2.03;;;43.20;47.20;;;;;;4929791;29;20027;-80
2023/09/07 13:09:34;;;;;;;3.70;2.38;;;43.10;47.20;;;;;;4946531;29;20040;-79
2023/09/07 13:12:00;;;;;;;3.13;2.20;;;43.00;47.50;;;;;;4947701;29;20054;-78
2023/09/07 13:14:26;;;;;;;3.83;2.10;;;43.20;47.30;;;;;;4941274;29;20210;-78
2023/09/07 13:16:51;;;;;;;3.20;2.30;;;42.90;47.20;;;;;;4930496;29;20032;-78
2023/09/07 13:19:17;;;;;;;3.15;2.20;;;43.60;46.70;;;;;;4944425;29;20257;-76
2023/09/07 13:21:43;;;;;;;4.05;2.40;;;44.30;46.20;;;;;;4938081;29;20039;-77
2023/09/07 13:24:08;;;;;;;3.45;2.33;;;45.10;46.30;;;;;;4928426;29;20024;-77
2023/09/07 13:26:34;;;;;;;3.50;2.25;;;45.70;45.30;;;;;;4946339;29;20031;-76
2023/09/07 13:29:00;;;;;;;2.97;2.00;;;45.80;44.90;;;;;;4949381;29;20028;-76
2023/09/07 13:31:25;;;;;;;3.90;2.05;;;45.80;45.20;;;;;;4947252;29;20220;-80
2023/09/07 13:33:51;;;;;;;4.53;1.90;;;46.30;44.90;;;;;;4948003;29;20031;-78
2023/09/07 13:36:17;;;;;;;4.22;1.95;;;45.60;44.60;;;;;;4948474;29;20031;-78
2023/09/07 13:38:43;;;;;;;3.75;2.00;;;45.40;44.90;;;;;;4948681;29;20036;-77
2023/09/07 13:41:09;;;;;;;3.72;2.10;;;45.80;45.10;;;;;;4948516;29;20139;-79
2023/09/07 13:43:35;;;;;;;4.13;2.15;;;46.30;44.20;;;;;;4949033;29;20035;-78
2023/09/07 13:46:01;;;;;;;4.90;2.30;;;46.70;43.90;;;;;;4944633;29;20075;-81
2023/09/07 13:48:26;;;;;;;3.30;2.10;;;46.90;43.60;;;;;;4929060;29;20080;-78
2023/09/07 13:50:52;;;;;;;5.20;2.10;;;46.50;43.70;;;;;;4929540;29;20055;-76
2023/09/07 13:53:18;;;;;;;2.40;2.10;;;46.60;43.80;;;;;;4927668;29;20032;-79
2023/09/07 13:55:46;;;;;;;3.63;2.33;;;46.70;44.10;;;;;;4929557;29;20038;-76
2023/09/07 13:58:11;;;;;;;3.90;1.85;;;47.20;43.50;;;;;;4929173;29;20047;-80
2023/09/07 14:00:38;;;;;;;2.53;1.90;;;47.40;42.80;;;;;;4945156;29;20205;-78
2023/09/07 14:03:04;;;;;;;5.80;2.55;;;47.90;43.10;;;;;;4947283;29;20024;-79
2023/09/07 14:05:30;;;;;;;4.97;1.80;;;48.10;42.70;;;;;;4947869;29;20421;-77
2023/09/07 14:07:56;;;;;;;3.80;2.10;;;48.10;43.00;;;;;;4948139;29;20028;-77
2023/09/07 14:10:22;;;;;;;3.85;2.00;;;48.40;42.50;;;;;;4947713;29;20062;-78
2023/09/07 14:12:48;;;;;;;3.17;1.80;;;47.70;42.70;;;;;;4947040;29;20063;-77
2023/09/07 14:15:14;;;;;;;2.97;2.03;;;48.00;42.30;;;;;;4932029;29;20447;-77
2023/09/07 14:17:40;;;;;;;2.67;1.63;;;47.40;42.20;;;;;;4931192;29;20032;-79
2023/09/07 14:20:07;;;;;;;4.60;1.70;;;47.40;42.90;;;;;;4946714;29;20210;-80
2023/09/07 14:22:32;;;;;;;3.88;1.90;;;47.50;42.10;;;;;;4930047;29;20039;-77
2023/09/07 14:24:58;;;;;;;3.03;2.07;;;47.90;42.40;;;;;;4929069;29;20024;-78
2023/09/07 14:27:26;;;;;;;3.63;1.77;;;47.30;42.50;;;;;;4928576;29;20104;-79
2023/09/07 14:29:51;;;;;;;3.78;1.92;;;46.20;43.40;;;;;;4927583;29;20262;-78
2023/09/07 14:32:17;;;;;;;2.20;1.90;;;46.40;43.30;;;;;;4928395;29;20044;-78
2023/09/07 14:34:43;;;;;;;3.20;2.10;;;46.50;43.70;;;;;;4929036;29;20031;-77
2023/09/07 14:37:08;;;;;;;5.10;2.27;;;46.70;42.80;;;;;;4927400;29;20028;-78
2023/09/07 14:39:35;;;;;;;2.60;1.90;;;46.90;43.00;;;;;;4927711;29;20237;-77
2023/09/07 14:42:01;;;;;;;;;;;46.90;42.90;;;;;;4929268;29;20140;-78
2023/09/07 14:44:27;;;;;;;3.60;2.00;;;47.40;42.50;;;;;;4928310;29;20117;-76
2023/09/07 14:46:53;;;;;;;4.47;2.35;;;47.00;42.40;;;;;;4926001;29;20507;-77
2023/09/07 14:49:22;;;;;;;3.65;2.20;;;46.50;42.70;;;;;;4927021;29;20071;-78
2023/09/07 14:51:47;;;;;;;3.65;2.05;;;45.40;43.10;;;;;;4928187;29;20099;-80
2023/09/07 14:54:13;;;;;;;3.38;2.00;;;46.00;43.30;;;;;;4926850;29;20028;-77
2023/09/07 14:56:39;;;;;;;5.43;2.08;;;46.40;43.30;;;;;;4928559;29;20062;-77
2023/09/07 14:59:06;;;;;;;4.97;2.20;;;47.50;42.80;;;;;;4924347;29;20090;-78
2023/09/07 15:01:32;;;;;;;3.47;2.20;;;47.70;42.40;;;;;;4927744;29;20614;-77
2023/09/07 15:04:00;;;;;;;4.43;2.03;;;48.30;41.80;;;;;;4927276;29;20131;-78
2023/09/07 15:06:26;;;;;;;2.78;1.90;;;48.20;41.90;;;;;;4927651;29;20528;-78
2023/09/07 15:08:52;;;;;;;3.07;1.73;;;48.20;41.40;;;;;;4922501;29;20096;-79
2023/09/07 15:11:18;;;;;;;3.60;2.00;;;48.00;41.60;;;;;;4927397;29;20056;-77
2023/09/07 15:13:45;;;;;;;4.50;2.00;;;47.50;42.00;;;;;;4927927;29;20067;-80
2023/09/07 15:16:11;;;;;;;3.85;2.05;;;47.80;41.90;;;;;;4927502;29;20046;-77
2023/09/07 15:18:37;;;;;;;4.40;1.83;;;47.60;41.70;;;;;;4937241;29;20032;-78
2023/09/07 15:21:02;;;;;;;3.10;2.00;;;48.00;42.40;;;;;;4940878;29;20087;-78
2023/09/07 15:23:28;;;;;;;3.63;2.10;;;48.40;41.90;;;;;;4927857;29;20238;-78
2023/09/07 15:25:54;;;;;;;4.30;1.80;;;48.80;41.30;;;;;;4926721;29;20032;-78
2023/09/07 15:28:20;;;;;;;3.47;2.15;;;49.00;41.20;;;;;;4926692;29;20032;-78
2023/09/07 15:30:46;;;;;;;4.17;1.90;;;48.60;41.10;;;;;;4927626;29;20024;-78
2023/09/07 15:33:11;;;;;;;3.27;2.10;;;48.30;41.50;;;;;;4927303;29;20318;-79
2023/09/07 15:35:37;;;;;;;2.97;1.93;;;48.50;41.60;;;;;;4926485;29;20032;-78
2023/09/07 15:38:06;;;;;;;3.10;2.10;;;48.80;41.10;;;;;;4927675;29;20036;-78
2023/09/07 15:40:32;;;;;;;3.40;2.00;;;48.10;41.00;;;;;;4910215;29;20365;-77
2023/09/07 15:42:58;;;;;;;4.28;2.20;;;47.50;41.90;;;;;;4927537;29;20039;-78
2023/09/07 15:45:24;;;;;;;5.13;2.27;;;47.30;41.70;;;;;;4926908;29;20036;-75
2023/09/07 15:47:50;;;;;;;2.60;1.90;;;47.10;41.90;;;;;;4945665;29;20506;-78
2023/09/07 15:50:15;;;;;;;4.68;2.38;;;47.30;41.40;;;;;;4946314;29;20070;-78
2023/09/07 15:52:48;;;;;;;4.00;2.17;;;47.10;41.70;;;;;;4946380;29;20044;-78
2023/09/07 15:55:15;;;;;;;2.55;2.08;;;46.60;41.60;;;;;;4946005;29;20040;-78
2023/09/07 15:57:43;;;;;;;3.45;2.10;;;46.70;42.00;;;;;;4946280;29;20028;-77
2023/09/07 16:00:09;;;;;;;4.55;2.25;;;46.70;41.80;;;;;;4945277;29;20309;-78
2023/09/07 16:02:38;;;;;;;4.63;2.10;;;46.60;41.60;;;;;;4946615;29;20028;-78
2023/09/07 16:05:04;;;;;;;3.92;2.25;;;46.00;41.90;;;;;;4946530;29;20035;-76
2023/09/07 16:07:30;;;;;;;5.18;2.42;;;46.30;41.80;;;;;;4946093;29;20102;-77
2023/09/07 16:09:56;;;;;;;3.33;2.33;;;46.20;41.30;;;;;;4932153;29;20032;-77
2023/09/07 16:12:21;;;;;;;4.45;2.55;;;45.50;41.80;;;;;;4927102;29;20051;-78
2023/09/07 16:14:49;;;;;;;;;;;45.70;42.10;;;;;;4927542;29;20048;-77
2023/09/07 16:17:14;;;;;;;5.07;2.53;;;45.60;42.10;;;;;;4909655;29;19907;-78
2023/09/07 16:19:41;;;;;;;3.88;2.13;;;45.80;42.00;;;;;;4944788;29;20027;-78
2023/09/07 16:22:08;;;;;;;3.87;2.20;;;45.70;41.80;;;;;;4930756;29;20028;-77
2023/09/07 16:24:35;;;;;;;3.80;2.05;;;45.40;41.90;;;;;;4926547;29;20020;-78
2023/09/07 16:27:01;;;;;;;3.58;2.40;;;44.70;42.40;;;;;;4926084;29;20050;-80
2023/09/07 16:29:27;;;;;;;4.35;2.28;;;44.90;42.50;;;;;;4909717;29;20043;-77
2023/09/07 16:31:52;;;;;;;2.95;2.10;;;44.50;42.30;;;;;;4925712;29;20036;-78
2023/09/07 16:34:18;;;;;;;6.70;3.22;;;43.90;42.70;;;;;;4926544;29;20254;-78
2023/09/07 16:36:44;;;;;;;5.13;2.17;;;43.90;43.20;;;;;;4926976;29;20028;-77
2023/09/07 16:39:10;;;;;;;4.97;2.40;;;44.10;42.80;;;;;;4925687;29;20028;-77
2023/09/07 16:41:36;;;;;;;3.35;2.17;;;43.90;42.70;;;;;;4926146;29;20060;-78
2023/09/07 16:44:02;;;;;;;3.50;2.55;;;43.70;42.90;;;;;;4915603;29;20049;-78
2023/09/07 16:46:28;;;;;;;4.32;2.83;;;43.20;43.10;;;;;;4906433;29;20040;-76
2023/09/07 16:48:54;;;;;;;3.72;2.75;;;42.80;43.40;;;;;;4907828;29;20040;-78
2023/09/07 16:51:21;;;;;;;4.60;2.53;;;43.10;43.10;;;;;;4909954;29;20227;-77
2023/09/07 16:53:47;;;;;;;4.05;2.80;;;42.90;43.10;;;;;;4909448;29;20040;-77
2023/09/07 16:56:16;;;;;;;3.75;2.42;;;42.50;43.30;;;;;;4918598;29;20044;-78
2023/09/07 16:58:43;;;;;;;4.32;2.90;;;41.40;43.80;;;;;;4921621;29;20028;-76
2023/09/07 17:01:09;;;;;;;5.35;3.08;;;40.00;44.80;;;;;;4919962;29;20040;-72
2023/09/07 17:03:35;;;;;;;4.47;2.83;;;38.40;46.00;;;;;;4917965;29;20272;-73
2023/09/07 17:06:01;;;;;;;5.57;2.92;;;36.90;47.90;;;;;;4911295;29;20020;-73
2023/09/07 17:08:26;;;;;;;6.10;2.45;;;35.50;48.90;;;;;;4907242;29;20043;-73
2023/09/07 17:10:52;;;;;;;5.00;2.95;;;34.60;50.10;;;;;;4907303;29;20079;-74
2023/09/07 17:13:18;;;;;;;4.00;2.45;;;33.80;51.00;;;;;;4907181;29;20064;-74
2023/09/07 17:15:48;;;;;;;4.43;3.03;;;32.90;52.80;;;;;;4908006;29;20325;-74
2023/09/07 17:18:14;;;;;;;4.28;2.70;;;32.50;53.60;;;;;;4914118;29;20039;-74
2023/09/07 17:20:40;;;;;;;5.22;2.88;;;31.90;53.80;;;;;;4923088;29;20298;-73
2023/09/07 17:23:06;;;;;;;5.93;3.10;;;31.50;54.20;;;;;;4907614;29;20089;-74
2023/09/07 17:25:34;;;;;;;7.28;2.95;;;31.20;55.50;;;;;;4906660;29;20099;-73
2023/09/07 17:28:00;;;;;;;5.82;3.20;;;30.90;55.40;;;;;;4907320;29;20064;-73
2023/09/07 17:30:26;;;;;;;4.35;2.95;;;30.50;55.90;;;;;;4906927;29;20037;-73
2023/09/07 17:32:56;;;;;;;7.15;3.00;;;30.30;56.60;;;;;;4907117;29;20044;-72
2023/09/07 17:35:23;;;;;;;7.03;3.60;;;30.00;56.90;;;;;;4906664;29;20226;-75
2023/09/07 17:37:48;;;;;;;7.28;3.10;;;29.70;57.30;;;;;;4907286;29;20044;-73
2023/09/07 17:40:15;;;;;;;4.85;3.20;;;29.60;57.90;;;;;;4907382;29;20279;-74
2023/09/07 17:42:42;;;;;;;6.20;3.05;;;29.40;58.70;;;;;;4907156;29;20349;-74
2023/09/07 17:45:08;;;;;;;5.32;3.38;;;29.20;58.90;;;;;;4907049;29;20036;-74
2023/09/07 17:47:34;;;;;;;4.95;3.20;;;29.00;59.30;;;;;;4907155;29;20044;-73
2023/09/07 17:50:00;;;;;;;6.03;3.72;;;28.90;60.10;;;;;;4907769;29;20095;-73
2023/09/07 17:52:25;;;;;;;6.70;3.90;;;29.00;60.50;;;;;;4910321;29;20060;-74
2023/09/07 17:54:52;;;;;;;5.13;3.47;;;28.90;60.90;;;;;;4910933;29;20259;-73
2023/09/07 17:57:18;;;;;;;6.15;3.40;;;28.80;61.00;;;;;;4910304;29;20047;-73
2023/09/07 17:59:44;;;;;;;6.47;3.72;;;28.60;61.60;;;;;;4910539;29;20210;-73
2023/09/07 18:02:22;;;;;;;5.70;3.08;;;28.50;62.20;;;;;;4909608;29;20407;-75
2023/09/07 18:04:50;;;;;;;5.53;3.25;;;28.30;62.70;;;;;;4910379;29;20377;-75
2023/09/07 18:07:16;;;;;;;6.47;3.17;;;28.10;63.20;;;;;;4910340;29;20364;-76
2023/09/07 18:09:42;;;;;;;5.20;3.25;;;27.90;63.80;;;;;;4905766;29;20037;-76
2023/09/07 18:12:08;;;;;;;5.28;3.08;;;27.80;64.30;;;;;;4891839;29;20121;-76
2023/09/07 18:14:34;;;;;;;5.10;3.53;;;27.70;64.60;;;;;;4898535;29;20222;-76
2023/09/07 18:17:00;;;;;;;8.95;4.32;;;27.60;65.00;;;;;;4909953;29;20092;-75
2023/09/07 18:19:25;;;;;;;5.57;4.30;;;27.50;65.50;;;;;;4925627;29;20116;-75
2023/09/07 18:21:51;;;;;;;6.85;3.72;;;27.30;66.00;;;;;;4916475;29;20066;-75
2023/09/07 18:24:17;;;;;;;7.35;4.28;;;27.10;66.60;;;;;;4910107;29;20032;-78
2023/09/07 18:26:46;;;;;;;6.63;4.45;;;27.00;67.10;;;;;;4908113;29;20044;-75
2023/09/07 18:29:13;;;;;;;5.93;3.80;;;26.80;67.60;;;;;;4909879;29;20044;-77
2023/09/07 18:31:39;;;;;;;5.35;4.15;;;26.70;68.10;;;;;;4909333;29;20103;-75
2023/09/07 18:34:04;;;;;;;6.13;4.20;;;26.60;68.50;;;;;;4909893;29;20247;-75
2023/09/07 18:36:30;;;;;;;6.22;4.38;;;26.50;68.70;;;;;;4909678;29;20029;-76